sensor_id;sensor_type;location;lat;lon;timestamp;P1;durP1;ratioP1;P2;durP2;ratioP2
920;SDS011;447;51.332;6.778;2023-08-21T00:02:28;3.43;;;3.13;;
920;SDS011;447;51.332;6.778;2023-08-21T00:04:54;3.43;;;2.90;;
920;SDS011;447;51.332;6.778;2023-08-21T00:07:20;3.10;;;2.90;;
920;SDS011;447;51.332;6.778;2023-08-21T00:09:46;4.30;;;2.80;;
920;SDS011;447;51.332;6.778;2023-08-21T00:12:12;3.43;;;3.07;;
920;SDS011;447;51.332;6.778;2023-08-21T00:14:40;3.33;;;3.00;;
920;SDS011;447;51.332;6.778;2023-08-21T00:17:08;3.30;;;3.10;;
920;SDS011;447;51.332;6.778;2023-08-21T00:19:43;3.13;;;2.70;;
920;SDS011;447;51.332;6.778;2023-08-21T00:22:09;4.40;;;3.00;;
920;SDS011;447;51.332;6.778;2023-08-21T00:24:37;3.40;;;3.10;;
920;SDS011;447;51.332;6.778;2023-08-21T00:27:03;3.40;;;3.07;;
920;SDS011;447;51.332;6.778;2023-08-21T00:29:29;3.63;;;2.80;;
920;SDS011;447;51.332;6.778;2023-08-21T00:31:58;3.40;;;3.10;;
920;SDS011;447;51.332;6.778;2023-08-21T00:34:26;3.87;;;3.23;;
920;SDS011;447;51.332;6.778;2023-08-21T00:36:53;2.90;;;2.60;;
920;SDS011;447;51.332;6.778;2023-08-21T00:39:19;4.20;;;2.97;;
920;SDS011;447;51.332;6.778;2023-08-21T00:41:47;3.50;;;3.20;;
920;SDS011;447;51.332;6.778;2023-08-21T00:44:15;3.30;;;2.93;;
920;SDS011;447;51.332;6.778;2023-08-21T00:46:41;3.90;;;3.50;;
920;SDS011;447;51.332;6.778;2023-08-21T00:49:07;4.20;;;3.30;;
920;SDS011;447;51.332;6.778;2023-08-21T00:51:34;5.03;;;2.83;;
920;SDS011;447;51.332;6.778;2023-08-21T00:54:05;4.17;;;3.00;;
920;SDS011;447;51.332;6.778;2023-08-21T00:56:31;5.67;;;3.23;;
920;SDS011;447;51.332;6.778;2023-08-21T00:58:57;3.60;;;3.27;;
920;SDS011;447;51.332;6.778;2023-08-21T01:01:24;3.60;;;3.30;;
920;SDS011;447;51.332;6.778;2023-08-21T01:03:53;3.27;;;2.93;;
920;SDS011;447;51.332;6.778;2023-08-21T01:06:21;3.27;;;2.93;;
920;SDS011;447;51.332;6.778;2023-08-21T01:08:59;3.33;;;3.03;;
920;SDS011;447;51.332;6.778;2023-08-21T01:11:38;4.90;;;3.43;;
920;SDS011;447;51.332;6.778;2023-08-21T01:14:31;2.97;;;2.73;;
920;SDS011;447;51.332;6.778;2023-08-21T01:17:04;3.43;;;3.13;;
920;SDS011;447;51.332;6.778;2023-08-21T01:19:38;3.67;;;2.80;;
920;SDS011;447;51.332;6.778;2023-08-21T01:22:09;3.40;;;3.10;;
920;SDS011;447;51.332;6.778;2023-08-21T01:24:37;3.50;;;3.00;;
920;SDS011;447;51.332;6.778;2023-08-21T01:27:07;3.00;;;2.70;;
920;SDS011;447;51.332;6.778;2023-08-21T01:29:34;3.33;;;3.03;;
920;SDS011;447;51.332;6.778;2023-08-21T01:32:14;4.60;;;3.20;;
920;SDS011;447;51.332;6.778;2023-08-21T01:34:57;3.33;;;3.00;;
920;SDS011;447;51.332;6.778;2023-08-21T01:37:29;3.77;;;2.80;;
920;SDS011;447;51.332;6.778;2023-08-21T01:40:00;4.90;;;2.97;;
920;SDS011;447;51.332;6.778;2023-08-21T01:42:28;4.03;;;3.17;;
920;SDS011;447;51.332;6.778;2023-08-21T01:44:54;3.13;;;2.73;;
920;SDS011;447;51.332;6.778;2023-08-21T01:47:21;3.53;;;3.23;;
920;SDS011;447;51.332;6.778;2023-08-21T01:49:49;3.90;;;3.37;;
920;SDS011;447;51.332;6.778;2023-08-21T01:52:18;3.50;;;3.20;;
920;SDS011;447;51.332;6.778;2023-08-21T01:54:45;3.33;;;2.90;;
920;SDS011;447;51.332;6.778;2023-08-21T01:57:13;3.23;;;2.93;;
920;SDS011;447;51.332;6.778;2023-08-21T01:59:41;4.03;;;2.87;;
920;SDS011;447;51.332;6.778;2023-08-21T02:02:10;5.33;;;3.00;;
920;SDS011;447;51.332;6.778;2023-08-21T02:04:36;3.53;;;3.20;;
920;SDS011;447;51.332;6.778;2023-08-21T02:07:04;3.70;;;3.20;;
920;SDS011;447;51.332;6.778;2023-08-21T02:09:32;3.77;;;3.47;;
920;SDS011;447;51.332;6.778;2023-08-21T02:11:59;3.70;;;3.40;;
920;SDS011;447;51.332;6.778;2023-08-21T02:14:25;6.70;;;3.80;;
920;SDS011;447;51.332;6.778;2023-08-21T02:16:51;3.23;;;2.90;;
920;SDS011;447;51.332;6.778;2023-08-21T02:19:17;3.30;;;3.10;;
920;SDS011;447;51.332;6.778;2023-08-21T02:21:43;3.40;;;3.10;;
920;SDS011;447;51.332;6.778;2023-08-21T02:24:16;3.93;;;3.57;;
920;SDS011;447;51.332;6.778;2023-08-21T02:26:43;3.30;;;3.00;;
920;SDS011;447;51.332;6.778;2023-08-21T02:29:13;6.90;;;3.03;;
920;SDS011;447;51.332;6.778;2023-08-21T02:31:39;2.93;;;2.73;;
920;SDS011;447;51.332;6.778;2023-08-21T02:34:08;4.00;;;2.80;;
920;SDS011;447;51.332;6.778;2023-08-21T02:36:34;4.83;;;3.20;;
920;SDS011;447;51.332;6.778;2023-08-21T02:39:00;3.63;;;3.03;;
920;SDS011;447;51.332;6.778;2023-08-21T02:41:26;3.33;;;3.13;;
920;SDS011;447;51.332;6.778;2023-08-21T02:43:55;3.80;;;3.50;;
920;SDS011;447;51.332;6.778;2023-08-21T02:46:23;3.37;;;3.13;;
920;SDS011;447;51.332;6.778;2023-08-21T02:48:49;4.90;;;3.00;;
920;SDS011;447;51.332;6.778;2023-08-21T02:51:16;3.30;;;3.00;;
920;SDS011;447;51.332;6.778;2023-08-21T02:53:44;3.50;;;3.20;;
920;SDS011;447;51.332;6.778;2023-08-21T02:56:15;3.73;;;2.90;;
920;SDS011;447;51.332;6.778;2023-08-21T02:58:41;3.47;;;3.20;;
920;SDS011;447;51.332;6.778;2023-08-21T03:01:07;3.60;;;3.30;;
920;SDS011;447;51.332;6.778;2023-08-21T03:03:33;4.07;;;2.90;;
920;SDS011;447;51.332;6.778;2023-08-21T03:06:03;3.17;;;2.97;;
920;SDS011;447;51.332;6.778;2023-08-21T03:08:32;4.43;;;3.13;;
920;SDS011;447;51.332;6.778;2023-08-21T03:10:58;3.27;;;2.97;;
920;SDS011;447;51.332;6.778;2023-08-21T03:13:29;4.73;;;2.70;;
920;SDS011;447;51.332;6.778;2023-08-21T03:16:00;4.07;;;3.03;;
920;SDS011;447;51.332;6.778;2023-08-21T03:18:29;3.10;;;2.90;;
920;SDS011;447;51.332;6.778;2023-08-21T03:20:57;3.23;;;2.93;;
920;SDS011;447;51.332;6.778;2023-08-21T03:23:23;3.43;;;3.13;;
920;SDS011;447;51.332;6.778;2023-08-21T03:25:55;3.27;;;3.03;;
920;SDS011;447;51.332;6.778;2023-08-21T03:28:27;3.07;;;2.87;;
920;SDS011;447;51.332;6.778;2023-08-21T03:30:57;3.17;;;2.90;;
920;SDS011;447;51.332;6.778;2023-08-21T03:33:23;3.97;;;3.60;;
920;SDS011;447;51.332;6.778;2023-08-21T03:35:53;5.10;;;3.53;;
920;SDS011;447;51.332;6.778;2023-08-21T03:38:21;3.53;;;3.23;;
920;SDS011;447;51.332;6.778;2023-08-21T03:40:47;4.37;;;3.17;;
920;SDS011;447;51.332;6.778;2023-08-21T03:43:13;3.33;;;3.03;;
920;SDS011;447;51.332;6.778;2023-08-21T03:45:42;3.60;;;3.27;;
920;SDS011;447;51.332;6.778;2023-08-21T03:48:12;3.67;;;2.97;;
920;SDS011;447;51.332;6.778;2023-08-21T03:50:40;3.47;;;3.17;;
920;SDS011;447;51.332;6.778;2023-08-21T03:53:06;3.60;;;3.30;;
920;SDS011;447;51.332;6.778;2023-08-21T03:55:32;3.33;;;3.03;;
920;SDS011;447;51.332;6.778;2023-08-21T03:57:58;3.80;;;3.10;;
920;SDS011;447;51.332;6.778;2023-08-21T04:00:26;3.30;;;3.00;;
920;SDS011;447;51.332;6.778;2023-08-21T04:02:52;3.40;;;3.20;;
920;SDS011;447;51.332;6.778;2023-08-21T04:05:18;4.60;;;3.10;;
920;SDS011;447;51.332;6.778;2023-08-21T04:07:47;6.50;;;2.97;;
920;SDS011;447;51.332;6.778;2023-08-21T04:10:13;3.73;;;2.73;;
920;SDS011;447;51.332;6.778;2023-08-21T04:12:42;3.40;;;3.10;;
920;SDS011;447;51.332;6.778;2023-08-21T04:15:13;3.47;;;3.27;;
920;SDS011;447;51.332;6.778;2023-08-21T04:17:41;5.90;;;3.30;;
920;SDS011;447;51.332;6.778;2023-08-21T04:20:11;3.70;;;3.40;;
920;SDS011;447;51.332;6.778;2023-08-21T04:22:40;3.93;;;3.50;;
920;SDS011;447;51.332;6.778;2023-08-21T04:25:07;3.33;;;3.03;;
920;SDS011;447;51.332;6.778;2023-08-21T04:27:37;3.33;;;3.03;;
920;SDS011;447;51.332;6.778;2023-08-21T04:30:03;3.47;;;2.63;;
920;SDS011;447;51.332;6.778;2023-08-21T04:32:31;3.03;;;2.73;;
920;SDS011;447;51.332;6.778;2023-08-21T04:34:59;4.10;;;2.80;;
920;SDS011;447;51.332;6.778;2023-08-21T04:37:25;3.27;;;2.60;;
920;SDS011;447;51.332;6.778;2023-08-21T04:39:54;4.80;;;3.37;;
920;SDS011;447;51.332;6.778;2023-08-21T04:42:23;2.90;;;2.70;;
920;SDS011;447;51.332;6.778;2023-08-21T04:44:51;3.13;;;2.80;;
920;SDS011;447;51.332;6.778;2023-08-21T04:47:23;3.80;;;2.83;;
920;SDS011;447;51.332;6.778;2023-08-21T04:49:55;3.80;;;3.00;;
920;SDS011;447;51.332;6.778;2023-08-21T04:52:22;3.30;;;2.80;;
920;SDS011;447;51.332;6.778;2023-08-21T04:54:49;3.70;;;3.13;;
920;SDS011;447;51.332;6.778;2023-08-21T04:57:15;3.33;;;3.03;;
920;SDS011;447;51.332;6.778;2023-08-21T04:59:45;5.97;;;3.27;;
920;SDS011;447;51.332;6.778;2023-08-21T05:02:16;3.13;;;2.93;;
920;SDS011;447;51.332;6.778;2023-08-21T05:04:47;3.60;;;3.10;;
920;SDS011;447;51.332;6.778;2023-08-21T05:07:18;3.50;;;3.10;;
920;SDS011;447;51.332;6.778;2023-08-21T05:09:44;2.80;;;2.60;;
920;SDS011;447;51.332;6.778;2023-08-21T05:12:12;4.27;;;3.40;;
920;SDS011;447;51.332;6.778;2023-08-21T05:14:42;3.63;;;3.33;;
920;SDS011;447;51.332;6.778;2023-08-21T05:17:09;5.27;;;2.87;;
920;SDS011;447;51.332;6.778;2023-08-21T05:19:37;3.40;;;3.10;;
920;SDS011;447;51.332;6.778;2023-08-21T05:22:03;2.70;;;2.50;;
920;SDS011;447;51.332;6.778;2023-08-21T05:24:31;3.40;;;3.10;;
920;SDS011;447;51.332;6.778;2023-08-21T05:27:02;5.60;;;3.13;;
920;SDS011;447;51.332;6.778;2023-08-21T05:29:31;3.40;;;3.10;;
920;SDS011;447;51.332;6.778;2023-08-21T05:31:59;3.77;;;3.47;;
920;SDS011;447;51.332;6.778;2023-08-21T05:34:25;3.77;;;2.90;;
920;SDS011;447;51.332;6.778;2023-08-21T05:36:56;3.93;;;3.20;;
920;SDS011;447;51.332;6.778;2023-08-21T05:39:25;5.63;;;3.57;;
920;SDS011;447;51.332;6.778;2023-08-21T05:41:51;5.93;;;3.50;;
920;SDS011;447;51.332;6.778;2023-08-21T05:44:21;3.90;;;3.40;;
920;SDS011;447;51.332;6.778;2023-08-21T05:46:47;5.50;;;4.03;;
920;SDS011;447;51.332;6.778;2023-08-21T05:49:14;5.13;;;3.57;;
920;SDS011;447;51.332;6.778;2023-08-21T05:51:40;5.80;;;3.83;;
920;SDS011;447;51.332;6.778;2023-08-21T05:54:07;5.43;;;4.03;;
920;SDS011;447;51.332;6.778;2023-08-21T05:56:37;5.20;;;3.53;;
920;SDS011;447;51.332;6.778;2023-08-21T05:59:09;6.77;;;3.30;;
920;SDS011;447;51.332;6.778;2023-08-21T06:01:36;4.77;;;3.67;;
920;SDS011;447;51.332;6.778;2023-08-21T06:04:04;3.40;;;3.10;;
920;SDS011;447;51.332;6.778;2023-08-21T06:06:50;3.47;;;3.17;;
920;SDS011;447;51.332;6.778;2023-08-21T06:09:19;7.57;;;3.43;;
920;SDS011;447;51.332;6.778;2023-08-21T06:11:45;3.77;;;3.23;;
920;SDS011;447;51.332;6.778;2023-08-21T06:14:13;4.27;;;3.37;;
920;SDS011;447;51.332;6.778;2023-08-21T06:16:42;3.77;;;3.37;;
920;SDS011;447;51.332;6.778;2023-08-21T06:19:10;4.40;;;3.70;;
920;SDS011;447;51.332;6.778;2023-08-21T06:21:39;4.10;;;3.40;;
920;SDS011;447;51.332;6.778;2023-08-21T06:24:08;3.43;;;3.13;;
920;SDS011;447;51.332;6.778;2023-08-21T06:26:37;3.70;;;3.40;;
920;SDS011;447;51.332;6.778;2023-08-21T06:29:06;4.87;;;3.50;;
920;SDS011;447;51.332;6.778;2023-08-21T06:31:32;4.50;;;3.67;;
920;SDS011;447;51.332;6.778;2023-08-21T06:33:58;3.53;;;3.23;;
920;SDS011;447;51.332;6.778;2023-08-21T06:36:24;4.60;;;3.40;;
920;SDS011;447;51.332;6.778;2023-08-21T06:38:50;4.30;;;3.30;;
920;SDS011;447;51.332;6.778;2023-08-21T06:41:16;5.30;;;2.80;;
920;SDS011;447;51.332;6.778;2023-08-21T06:43:47;4.70;;;4.00;;
920;SDS011;447;51.332;6.778;2023-08-21T06:46:18;4.03;;;3.47;;
920;SDS011;447;51.332;6.778;2023-08-21T06:48:47;3.50;;;3.20;;
920;SDS011;447;51.332;6.778;2023-08-21T06:51:15;3.87;;;2.87;;
920;SDS011;447;51.332;6.778;2023-08-21T06:53:41;3.60;;;3.00;;
920;SDS011;447;51.332;6.778;2023-08-21T06:56:10;5.00;;;3.30;;
920;SDS011;447;51.332;6.778;2023-08-21T06:58:38;5.17;;;3.07;;
920;SDS011;447;51.332;6.778;2023-08-21T07:01:04;2.90;;;2.70;;
920;SDS011;447;51.332;6.778;2023-08-21T07:03:32;3.00;;;2.80;;
920;SDS011;447;51.332;6.778;2023-08-21T07:06:10;3.53;;;3.23;;
920;SDS011;447;51.332;6.778;2023-08-21T07:08:41;3.03;;;2.70;;
920;SDS011;447;51.332;6.778;2023-08-21T07:11:07;3.20;;;2.80;;
920;SDS011;447;51.332;6.778;2023-08-21T07:13:35;4.30;;;3.47;;
920;SDS011;447;51.332;6.778;2023-08-21T07:16:04;5.00;;;3.40;;
920;SDS011;447;51.332;6.778;2023-08-21T07:18:34;3.67;;;2.77;;
920;SDS011;447;51.332;6.778;2023-08-21T07:21:01;4.30;;;3.30;;
920;SDS011;447;51.332;6.778;2023-08-21T07:23:30;3.00;;;2.80;;
920;SDS011;447;51.332;6.778;2023-08-21T07:25:57;3.40;;;2.67;;
920;SDS011;447;51.332;6.778;2023-08-21T07:28:26;4.03;;;3.03;;
920;SDS011;447;51.332;6.778;2023-08-21T07:30:57;3.40;;;3.10;;
920;SDS011;447;51.332;6.778;2023-08-21T07:33:24;4.43;;;3.50;;
920;SDS011;447;51.332;6.778;2023-08-21T07:36:00;3.37;;;3.00;;
920;SDS011;447;51.332;6.778;2023-08-21T07:38:30;3.50;;;3.10;;
920;SDS011;447;51.332;6.778;2023-08-21T07:41:08;3.37;;;3.07;;
920;SDS011;447;51.332;6.778;2023-08-21T07:43:41;3.80;;;3.50;;
920;SDS011;447;51.332;6.778;2023-08-21T07:46:09;3.00;;;2.80;;
920;SDS011;447;51.332;6.778;2023-08-21T07:48:46;3.10;;;2.87;;
920;SDS011;447;51.332;6.778;2023-08-21T07:51:12;4.93;;;3.00;;
920;SDS011;447;51.332;6.778;2023-08-21T07:53:40;3.50;;;3.20;;
920;SDS011;447;51.332;6.778;2023-08-21T07:56:09;4.10;;;3.10;;
920;SDS011;447;51.332;6.778;2023-08-21T07:58:35;3.23;;;3.03;;
920;SDS011;447;51.332;6.778;2023-08-21T08:01:03;3.60;;;3.27;;
920;SDS011;447;51.332;6.778;2023-08-21T08:03:30;3.97;;;3.67;;
920;SDS011;447;51.332;6.778;2023-08-21T08:05:59;4.37;;;2.80;;
920;SDS011;447;51.332;6.778;2023-08-21T08:08:28;6.50;;;3.50;;
920;SDS011;447;51.332;6.778;2023-08-21T08:11:01;2.93;;;2.67;;
920;SDS011;447;51.332;6.778;2023-08-21T08:13:30;4.60;;;3.63;;
920;SDS011;447;51.332;6.778;2023-08-21T08:15:56;3.30;;;3.00;;
920;SDS011;447;51.332;6.778;2023-08-21T08:18:22;3.70;;;2.93;;
920;SDS011;447;51.332;6.778;2023-08-21T08:20:51;3.40;;;3.10;;
920;SDS011;447;51.332;6.778;2023-08-21T08:23:19;3.20;;;3.00;;
920;SDS011;447;51.332;6.778;2023-08-21T08:25:46;3.87;;;3.53;;
920;SDS011;447;51.332;6.778;2023-08-21T08:28:13;3.67;;;3.30;;
920;SDS011;447;51.332;6.778;2023-08-21T08:30:39;4.50;;;3.77;;
920;SDS011;447;51.332;6.778;2023-08-21T08:33:07;6.00;;;3.80;;
920;SDS011;447;51.332;6.778;2023-08-21T08:35:35;4.57;;;3.80;;
920;SDS011;447;51.332;6.778;2023-08-21T08:38:05;4.30;;;3.80;;
920;SDS011;447;51.332;6.778;2023-08-21T08:40:33;3.60;;;3.30;;
920;SDS011;447;51.332;6.778;2023-08-21T08:43:02;3.67;;;3.37;;
920;SDS011;447;51.332;6.778;2023-08-21T08:45:35;4.30;;;3.90;;
920;SDS011;447;51.332;6.778;2023-08-21T08:48:04;4.53;;;3.07;;
920;SDS011;447;51.332;6.778;2023-08-21T08:50:33;3.80;;;3.40;;
920;SDS011;447;51.332;6.778;2023-08-21T08:53:02;4.73;;;3.30;;
920;SDS011;447;51.332;6.778;2023-08-21T08:55:29;3.73;;;3.43;;
920;SDS011;447;51.332;6.778;2023-08-21T08:57:57;5.33;;;3.90;;
920;SDS011;447;51.332;6.778;2023-08-21T09:00:26;3.70;;;3.40;;
920;SDS011;447;51.332;6.778;2023-08-21T09:02:52;4.13;;;3.60;;
920;SDS011;447;51.332;6.778;2023-08-21T09:05:20;4.37;;;3.70;;
920;SDS011;447;51.332;6.778;2023-08-21T09:10:50;5.43;;;3.60;;
920;SDS011;447;51.332;6.778;2023-08-21T09:13:17;5.10;;;4.20;;
920;SDS011;447;51.332;6.778;2023-08-21T09:15:48;4.67;;;3.60;;
920;SDS011;447;51.332;6.778;2023-08-21T09:18:19;4.43;;;4.03;;
920;SDS011;447;51.332;6.778;2023-08-21T09:20:45;4.00;;;3.80;;
920;SDS011;447;51.332;6.778;2023-08-21T09:23:15;4.97;;;3.20;;
920;SDS011;447;51.332;6.778;2023-08-21T09:25:43;3.83;;;3.23;;
920;SDS011;447;51.332;6.778;2023-08-21T09:28:18;3.93;;;3.40;;
920;SDS011;447;51.332;6.778;2023-08-21T09:33:18;3.60;;;2.73;;
920;SDS011;447;51.332;6.778;2023-08-21T09:35:52;3.83;;;3.50;;
920;SDS011;447;51.332;6.778;2023-08-21T09:38:19;3.93;;;3.63;;
920;SDS011;447;51.332;6.778;2023-08-21T09:40:51;4.20;;;3.80;;
920;SDS011;447;51.332;6.778;2023-08-21T09:43:20;4.07;;;3.60;;
920;SDS011;447;51.332;6.778;2023-08-21T09:45:50;4.67;;;4.17;;
920;SDS011;447;51.332;6.778;2023-08-21T09:48:24;4.93;;;3.83;;
920;SDS011;447;51.332;6.778;2023-08-21T09:50:55;4.17;;;3.77;;
920;SDS011;447;51.332;6.778;2023-08-21T09:53:27;4.33;;;3.93;;
920;SDS011;447;51.332;6.778;2023-08-21T09:55:55;5.00;;;3.57;;
920;SDS011;447;51.332;6.778;2023-08-21T09:58:25;3.90;;;3.70;;
920;SDS011;447;51.332;6.778;2023-08-21T10:00:56;5.17;;;3.57;;
920;SDS011;447;51.332;6.778;2023-08-21T10:03:26;4.70;;;4.10;;
920;SDS011;447;51.332;6.778;2023-08-21T10:05:54;4.30;;;3.67;;
920;SDS011;447;51.332;6.778;2023-08-21T10:08:25;4.30;;;3.87;;
920;SDS011;447;51.332;6.778;2023-08-21T10:10:56;3.57;;;3.27;;
920;SDS011;447;51.332;6.778;2023-08-21T10:13:27;5.20;;;3.63;;
920;SDS011;447;51.332;6.778;2023-08-21T10:15:53;4.43;;;3.77;;
920;SDS011;447;51.332;6.778;2023-08-21T10:18:20;4.20;;;3.70;;
920;SDS011;447;51.332;6.778;2023-08-21T10:20:56;3.97;;;3.63;;
920;SDS011;447;51.332;6.778;2023-08-21T10:23:38;4.00;;;3.60;;
920;SDS011;447;51.332;6.778;2023-08-21T10:26:07;4.40;;;4.00;;
920;SDS011;447;51.332;6.778;2023-08-21T10:28:42;4.20;;;3.90;;
920;SDS011;447;51.332;6.778;2023-08-21T10:31:31;5.00;;;3.30;;
920;SDS011;447;51.332;6.778;2023-08-21T10:34:10;7.57;;;4.43;;
920;SDS011;447;51.332;6.778;2023-08-21T10:44:51;5.73;;;4.10;;
920;SDS011;447;51.332;6.778;2023-08-21T10:47:30;3.80;;;3.40;;
920;SDS011;447;51.332;6.778;2023-08-21T10:50:02;3.80;;;3.50;;
920;SDS011;447;51.332;6.778;2023-08-21T10:52:37;4.17;;;3.60;;
920;SDS011;447;51.332;6.778;2023-08-21T10:55:10;4.47;;;3.70;;
920;SDS011;447;51.332;6.778;2023-08-21T10:57:39;4.17;;;3.87;;
920;SDS011;447;51.332;6.778;2023-08-21T11:02:35;4.10;;;3.63;;
920;SDS011;447;51.332;6.778;2023-08-21T11:05:04;4.10;;;3.80;;
920;SDS011;447;51.332;6.778;2023-08-21T11:07:45;4.10;;;3.70;;
920;SDS011;447;51.332;6.778;2023-08-21T11:10:14;3.97;;;3.60;;
920;SDS011;447;51.332;6.778;2023-08-21T11:12:50;5.80;;;3.67;;
920;SDS011;447;51.332;6.778;2023-08-21T11:15:21;4.37;;;3.77;;
920;SDS011;447;51.332;6.778;2023-08-21T11:17:51;5.23;;;3.80;;
920;SDS011;447;51.332;6.778;2023-08-21T11:20:22;3.73;;;3.43;;
920;SDS011;447;51.332;6.778;2023-08-21T11:22:49;4.70;;;4.03;;
920;SDS011;447;51.332;6.778;2023-08-21T11:25:18;6.80;;;4.10;;
920;SDS011;447;51.332;6.778;2023-08-21T11:27:46;3.80;;;3.40;;
920;SDS011;447;51.332;6.778;2023-08-21T11:30:12;4.50;;;4.10;;
920;SDS011;447;51.332;6.778;2023-08-21T11:32:41;4.53;;;4.03;;
920;SDS011;447;51.332;6.778;2023-08-21T11:35:11;4.40;;;3.80;;
920;SDS011;447;51.332;6.778;2023-08-21T11:37:44;3.87;;;3.57;;
920;SDS011;447;51.332;6.778;2023-08-21T11:40:11;4.20;;;3.80;;
920;SDS011;447;51.332;6.778;2023-08-21T11:42:41;5.57;;;3.80;;
920;SDS011;447;51.332;6.778;2023-08-21T11:45:07;4.00;;;3.70;;
920;SDS011;447;51.332;6.778;2023-08-21T11:47:44;3.80;;;3.50;;
920;SDS011;447;51.332;6.778;2023-08-21T11:50:14;4.30;;;3.87;;
920;SDS011;447;51.332;6.778;2023-08-21T11:52:43;3.80;;;3.50;;
920;SDS011;447;51.332;6.778;2023-08-21T11:55:09;4.70;;;4.20;;
920;SDS011;447;51.332;6.778;2023-08-21T11:57:46;5.07;;;3.40;;
920;SDS011;447;51.332;6.778;2023-08-21T12:00:26;6.03;;;4.23;;
920;SDS011;447;51.332;6.778;2023-08-21T12:02:58;6.20;;;4.30;;
920;SDS011;447;51.332;6.778;2023-08-21T12:05:26;4.60;;;4.20;;
920;SDS011;447;51.332;6.778;2023-08-21T12:08:00;4.37;;;3.97;;
920;SDS011;447;51.332;6.778;2023-08-21T12:10:27;4.50;;;4.00;;
920;SDS011;447;51.332;6.778;2023-08-21T12:12:54;4.20;;;3.80;;
920;SDS011;447;51.332;6.778;2023-08-21T12:15:21;4.07;;;3.77;;
920;SDS011;447;51.332;6.778;2023-08-21T12:17:48;4.40;;;4.00;;
920;SDS011;447;51.332;6.778;2023-08-21T12:20:16;3.77;;;3.47;;
920;SDS011;447;51.332;6.778;2023-08-21T12:22:44;6.93;;;4.10;;
920;SDS011;447;51.332;6.778;2023-08-21T12:25:13;4.63;;;3.93;;
920;SDS011;447;51.332;6.778;2023-08-21T12:27:39;4.30;;;3.93;;
920;SDS011;447;51.332;6.778;2023-08-21T12:30:05;3.90;;;3.60;;
920;SDS011;447;51.332;6.778;2023-08-21T12:32:36;5.53;;;4.37;;
920;SDS011;447;51.332;6.778;2023-08-21T12:35:03;4.03;;;3.70;;
920;SDS011;447;51.332;6.778;2023-08-21T12:37:31;4.60;;;4.20;;
920;SDS011;447;51.332;6.778;2023-08-21T12:39:57;4.33;;;3.90;;
920;SDS011;447;51.332;6.778;2023-08-21T12:42:23;4.17;;;3.73;;
920;SDS011;447;51.332;6.778;2023-08-21T12:44:51;5.00;;;4.03;;
920;SDS011;447;51.332;6.778;2023-08-21T12:47:19;4.37;;;3.97;;
920;SDS011;447;51.332;6.778;2023-08-21T12:49:45;4.40;;;4.10;;
920;SDS011;447;51.332;6.778;2023-08-21T12:52:11;5.60;;;4.03;;
920;SDS011;447;51.332;6.778;2023-08-21T12:54:38;5.13;;;4.70;;
920;SDS011;447;51.332;6.778;2023-08-21T12:57:05;4.43;;;3.97;;
920;SDS011;447;51.332;6.778;2023-08-21T12:59:33;12.53;;;4.73;;
920;SDS011;447;51.332;6.778;2023-08-21T13:02:04;8.57;;;4.00;;
920;SDS011;447;51.332;6.778;2023-08-21T13:04:32;6.07;;;4.20;;
920;SDS011;447;51.332;6.778;2023-08-21T13:07:00;9.97;;;5.17;;
920;SDS011;447;51.332;6.778;2023-08-21T13:09:31;6.30;;;4.37;;
920;SDS011;447;51.332;6.778;2023-08-21T13:11:59;7.43;;;4.70;;
920;SDS011;447;51.332;6.778;2023-08-21T13:14:25;4.63;;;3.60;;
920;SDS011;447;51.332;6.778;2023-08-21T13:16:53;6.73;;;4.50;;
920;SDS011;447;51.332;6.778;2023-08-21T13:19:20;5.73;;;4.10;;
920;SDS011;447;51.332;6.778;2023-08-21T13:21:46;5.97;;;5.30;;
920;SDS011;447;51.332;6.778;2023-08-21T13:24:14;5.23;;;4.40;;
920;SDS011;447;51.332;6.778;2023-08-21T13:26:48;6.83;;;4.13;;
920;SDS011;447;51.332;6.778;2023-08-21T13:29:14;5.00;;;4.20;;
920;SDS011;447;51.332;6.778;2023-08-21T13:34:11;8.80;;;5.30;;
920;SDS011;447;51.332;6.778;2023-08-21T13:36:37;9.13;;;5.00;;
920;SDS011;447;51.332;6.778;2023-08-21T13:39:03;7.80;;;4.60;;
920;SDS011;447;51.332;6.778;2023-08-21T13:41:33;4.70;;;4.00;;
920;SDS011;447;51.332;6.778;2023-08-21T13:44:02;5.27;;;4.43;;
920;SDS011;447;51.332;6.778;2023-08-21T13:46:30;7.50;;;4.37;;
920;SDS011;447;51.332;6.778;2023-08-21T13:48:59;5.30;;;4.17;;
920;SDS011;447;51.332;6.778;2023-08-21T13:51:29;4.80;;;4.10;;
920;SDS011;447;51.332;6.778;2023-08-21T13:53:58;8.43;;;4.87;;
920;SDS011;447;51.332;6.778;2023-08-21T13:56:24;5.80;;;4.00;;
920;SDS011;447;51.332;6.778;2023-08-21T13:58:57;7.33;;;4.10;;
920;SDS011;447;51.332;6.778;2023-08-21T14:01:23;7.53;;;5.13;;
920;SDS011;447;51.332;6.778;2023-08-21T14:03:51;6.40;;;4.83;;
920;SDS011;447;51.332;6.778;2023-08-21T14:06:17;6.33;;;4.30;;
920;SDS011;447;51.332;6.778;2023-08-21T14:08:46;8.90;;;4.90;;
920;SDS011;447;51.332;6.778;2023-08-21T14:11:11;5.20;;;4.60;;
920;SDS011;447;51.332;6.778;2023-08-21T14:13:38;6.37;;;4.23;;
920;SDS011;447;51.332;6.778;2023-08-21T14:16:06;6.23;;;4.60;;
920;SDS011;447;51.332;6.778;2023-08-21T14:18:37;10.17;;;5.50;;
920;SDS011;447;51.332;6.778;2023-08-21T14:21:05;11.13;;;4.93;;
920;SDS011;447;51.332;6.778;2023-08-21T14:23:36;8.30;;;4.80;;
920;SDS011;447;51.332;6.778;2023-08-21T14:26:05;6.20;;;4.30;;
920;SDS011;447;51.332;6.778;2023-08-21T14:28:34;5.90;;;4.40;;
920;SDS011;447;51.332;6.778;2023-08-21T14:31:10;4.90;;;4.40;;
920;SDS011;447;51.332;6.778;2023-08-21T14:33:36;7.27;;;4.60;;
920;SDS011;447;51.332;6.778;2023-08-21T14:36:03;5.27;;;4.77;;
920;SDS011;447;51.332;6.778;2023-08-21T14:38:32;5.40;;;4.30;;
920;SDS011;447;51.332;6.778;2023-08-21T14:40:58;9.90;;;4.97;;
920;SDS011;447;51.332;6.778;2023-08-21T14:43:27;6.17;;;4.80;;
920;SDS011;447;51.332;6.778;2023-08-21T14:46:01;10.83;;;5.93;;
920;SDS011;447;51.332;6.778;2023-08-21T14:48:34;12.57;;;5.73;;
920;SDS011;447;51.332;6.778;2023-08-21T14:51:00;9.43;;;6.03;;
920;SDS011;447;51.332;6.778;2023-08-21T14:53:26;10.70;;;5.80;;
920;SDS011;447;51.332;6.778;2023-08-21T14:55:52;6.03;;;4.77;;
920;SDS011;447;51.332;6.778;2023-08-21T14:58:18;10.60;;;6.07;;
920;SDS011;447;51.332;6.778;2023-08-21T15:00:46;9.77;;;5.47;;
920;SDS011;447;51.332;6.778;2023-08-21T15:03:12;10.00;;;5.00;;
920;SDS011;447;51.332;6.778;2023-08-21T15:05:41;11.03;;;5.07;;
920;SDS011;447;51.332;6.778;2023-08-21T15:08:07;46.90;;;35.17;;
920;SDS011;447;51.332;6.778;2023-08-21T15:10:35;66.85;;;60.17;;
920;SDS011;447;51.332;6.778;2023-08-21T15:13:01;40.57;;;34.37;;
920;SDS011;447;51.332;6.778;2023-08-21T15:15:27;37.50;;;33.53;;
920;SDS011;447;51.332;6.778;2023-08-21T15:18:00;29.87;;;26.77;;
920;SDS011;447;51.332;6.778;2023-08-21T15:20:36;36.10;;;28.07;;
920;SDS011;447;51.332;6.778;2023-08-21T15:23:01;35.93;;;30.73;;
920;SDS011;447;51.332;6.778;2023-08-21T15:25:27;33.57;;;29.90;;
920;SDS011;447;51.332;6.778;2023-08-21T15:27:56;37.20;;;33.30;;
920;SDS011;447;51.332;6.778;2023-08-21T15:30:27;35.63;;;32.00;;
920;SDS011;447;51.332;6.778;2023-08-21T15:32:53;35.40;;;31.53;;
920;SDS011;447;51.332;6.778;2023-08-21T15:35:19;32.63;;;29.23;;
920;SDS011;447;51.332;6.778;2023-08-21T15:37:45;32.93;;;29.73;;
920;SDS011;447;51.332;6.778;2023-08-21T15:40:14;29.93;;;26.77;;
920;SDS011;447;51.332;6.778;2023-08-21T15:42:40;27.60;;;24.80;;
920;SDS011;447;51.332;6.778;2023-08-21T15:45:09;27.20;;;24.33;;
920;SDS011;447;51.332;6.778;2023-08-21T15:47:35;27.47;;;24.27;;
920;SDS011;447;51.332;6.778;2023-08-21T15:50:01;26.73;;;23.50;;
920;SDS011;447;51.332;6.778;2023-08-21T15:52:28;24.50;;;22.00;;
920;SDS011;447;51.332;6.778;2023-08-21T15:54:56;23.43;;;21.13;;
920;SDS011;447;51.332;6.778;2023-08-21T15:57:22;23.23;;;20.87;;
920;SDS011;447;51.332;6.778;2023-08-21T15:59:52;22.93;;;19.50;;
920;SDS011;447;51.332;6.778;2023-08-21T16:02:18;21.03;;;18.80;;
920;SDS011;447;51.332;6.778;2023-08-21T16:04:44;18.20;;;16.47;;
920;SDS011;447;51.332;6.778;2023-08-21T16:07:10;22.20;;;18.07;;
920;SDS011;447;51.332;6.778;2023-08-21T16:09:38;18.43;;;16.47;;
920;SDS011;447;51.332;6.778;2023-08-21T16:12:04;18.80;;;17.00;;